createdAt,value
2022-09-28T05:02:24.264Z,43.8
2022-09-28T05:07:51.777Z,43.8
2022-09-28T05:13:18.300Z,43.8
2022-09-28T05:18:42.732Z,43.7
2022-09-28T05:24:07.817Z,43.7
2022-09-28T05:29:13.850Z,43.6
2022-09-28T05:34:38.770Z,43.6
2022-09-28T05:40:01.952Z,43.6
2022-09-28T05:45:23.739Z,43.6
2022-09-28T05:50:45.832Z,43.6
2022-09-28T05:56:08.359Z,43.5
2022-09-28T06:01:30.055Z,43.5
2022-09-28T06:06:53.054Z,43.5
2022-09-28T06:12:17.233Z,43.4
2022-09-28T06:17:39.875Z,43.4
2022-09-28T06:23:05.200Z,43.4
2022-09-28T06:28:14.931Z,43.4
2022-09-28T06:33:37.595Z,43.3
2022-09-28T06:38:59.816Z,43.3
2022-09-28T06:44:24.064Z,43.3
2022-09-28T06:49:52.219Z,43.3
2022-09-28T06:55:14.634Z,43.2
2022-09-28T07:00:37.179Z,43.2
2022-09-28T07:05:58.749Z,43.2
2022-09-28T07:11:54.026Z,43.1
2022-09-28T07:18:49.500Z,43.1
2022-09-28T07:25:28.697Z,43.1
2022-09-28T07:30:55.722Z,43
2022-09-28T07:36:21.737Z,43
2022-09-28T07:41:44.282Z,43
2022-09-28T07:47:09.560Z,42.9
2022-09-28T07:52:38.648Z,42.9
2022-09-28T07:57:45.431Z,42.9
2022-09-28T08:03:09.895Z,42.9
2022-09-28T08:08:32.206Z,42.8
2022-09-28T08:14:00.107Z,42.8
2022-09-28T08:19:26.970Z,42.8
2022-09-28T08:24:52.317Z,43.1
2022-09-28T08:30:15.565Z,43.2
2022-09-28T08:35:43.498Z,43.5
2022-09-28T08:41:06.625Z,43.8
2022-09-28T08:46:29.653Z,43.9
2022-09-28T08:52:21.846Z,44.3
2022-09-28T08:58:00.183Z,44.8
2022-09-28T09:03:38.470Z,44.9
2022-09-28T09:09:16.554Z,45.3
2022-09-28T17:17:41.236Z,53.1
2022-09-28T17:28:57.196Z,53
2022-09-28T17:34:39.371Z,53
2022-09-28T17:40:29.740Z,52.9
2022-09-28T17:46:08.600Z,52.9
2022-09-28T17:51:52.630Z,52.9
2022-09-28T17:57:21.165Z,52.8
2022-09-28T18:02:44.274Z,52.8
2022-09-28T18:08:53.738Z,52.8
2022-09-28T18:14:32.173Z,52.7
2022-09-28T18:20:10.113Z,52.7
2022-09-28T18:25:48.307Z,52.6
2022-09-28T18:30:56.805Z,52.6
2022-09-28T18:36:35.482Z,52.5
2022-09-28T18:42:14.401Z,52.5
2022-09-28T18:47:38.007Z,52.4
2022-09-28T18:53:00.620Z,52.4
2022-09-28T18:58:38.754Z,52.4
2022-09-28T19:10:08.256Z,52.3
2022-09-28T19:15:46.665Z,52.3
2022-09-28T19:21:25.419Z,52.3
2022-09-28T19:27:02.485Z,52.2
2022-09-28T19:32:28.435Z,52.2
2022-09-28T19:38:11.665Z,52.1
2022-09-28T19:43:48.818Z,52.1
2022-09-28T19:49:26.552Z,52
2022-09-28T19:55:09.508Z,52
2022-09-28T20:11:39.037Z,51.9
2022-09-28T20:17:07.076Z,51.8
2022-09-28T20:22:49.605Z,51.8
2022-09-28T20:28:31.977Z,51.8
2022-09-28T20:34:18.501Z,51.8
2022-09-28T20:40:03.942Z,51.7
2022-09-28T20:45:30.265Z,51.6
2022-09-28T20:50:52.685Z,51.5
2022-09-28T20:56:30.339Z,51.4
2022-09-28T21:02:12.995Z,51.3
2022-09-28T21:07:52.152Z,51.3
2022-09-28T21:13:29.503Z,51.3
2022-09-28T21:19:07.990Z,51.2
2022-09-28T21:24:48.117Z,51.1
2022-09-28T21:30:24.231Z,51.1
2022-09-28T21:35:46.330Z,51.1
2022-09-28T21:41:11.666Z,51
2022-09-28T21:46:48.798Z,51
2022-09-28T21:52:10.938Z,50.9
2022-09-28T21:57:47.126Z,50.9
2022-09-28T22:03:25.609Z,50.8
2022-09-28T22:09:03.492Z,50.8
2022-09-28T22:14:41.750Z,50.8
2022-09-28T22:20:19.607Z,50.7
2022-09-28T22:25:42.455Z,50.6
2022-09-28T22:31:03.862Z,50.6
2022-09-28T22:36:41.343Z,50.6
2022-09-28T22:42:18.899Z,50.5
2022-09-28T22:48:00.212Z,50.4
2022-09-28T22:53:21.285Z,50.4
2022-09-28T22:58:43.465Z,50.4
2022-09-28T23:04:21.264Z,50.3
2022-09-28T23:09:43.144Z,50.3
2022-09-28T23:15:06.048Z,50.3
2022-09-28T23:20:27.582Z,50.2
2022-09-28T23:25:49.441Z,50.1
2022-09-28T23:31:27.640Z,50.1
2022-09-28T23:36:59.526Z,50.1
2022-09-28T23:42:21.176Z,50
2022-09-28T23:48:01.113Z,49.9
2022-09-28T23:53:37.824Z,49.9
2022-09-28T23:59:15.191Z,49.9
